Time;durP1;ratioP1;P1;durP2;ratioP2;P2;SDS_P1;SDS_P2;PMS_P1;PMS_P2;Temp;Humidity;BMP_temperature;BMP_pressure;BME280_temperature;BME280_humidity;BME280_pressure;Samples;Min_cycle;Max_cycle;Signal;HPM_P1;HPM_P2
2022/01/02 00:00:15;;;;;;;31.17;19.10;;;;;;;9.22;100.00;99658.97;5018030;28;20245;-81
2022/01/02 00:02:49;;;;;;;30.50;18.00;;;;;;;9.21;100.00;99657.28;5015137;28;20206;-81
2022/01/02 00:05:22;;;;;;;34.00;18.77;;;;;;;9.18;100.00;99643.28;4957734;28;20219;-81
2022/01/02 00:07:57;;;;;;;28.73;18.13;;;;;;;9.25;100.00;99633.22;4955696;28;20200;-81
2022/01/02 00:10:31;;;;;;;32.07;20.03;;;;;;;9.18;100.00;99627.44;4953952;28;20220;-82
2022/01/02 00:13:03;;;;;;;28.77;17.90;;;;;;;9.05;100.00;99630.75;4958650;28;20213;-81
2022/01/02 00:15:32;;;;;;;25.80;17.60;;;;;;;9.05;100.00;99630.75;4956839;28;20209;-81
2022/01/02 00:18:08;;;;;;;27.23;17.07;;;;;;;8.98;100.00;99634.66;4947389;28;20192;-81
2022/01/02 00:20:46;;;;;;;25.23;16.07;;;;;;;8.92;100.00;99640.22;4951073;29;20224;-81
2022/01/02 00:23:20;;;;;;;23.83;15.27;;;;;;;9.07;100.00;99657.94;4970729;28;20642;-81
2022/01/02 00:25:52;;;;;;;26.70;15.80;;;;;;;9.08;100.00;99664.97;5008482;28;20214;-81
2022/01/02 00:28:25;;;;;;;22.40;15.07;;;;;;;9.02;100.00;99655.53;5006576;28;20203;-81
2022/01/02 00:30:54;;;;;;;25.60;15.30;;;;;;;9.09;100.00;99662.25;5006207;28;20222;-81
2022/01/02 00:33:24;;;;;;;24.63;15.90;;;;;;;8.98;100.00;99654.00;5012337;28;20234;-82
2022/01/02 00:35:52;;;;;;;25.70;16.40;;;;;;;9.07;100.00;99658.81;5009399;28;20658;-81
2022/01/02 00:38:22;;;;;;;25.90;16.70;;;;;;;8.96;100.00;99637.34;5010448;28;20202;-81
2022/01/02 00:40:54;;;;;;;26.10;15.60;;;;;;;8.96;100.00;99620.63;5021476;28;20182;-80
2022/01/02 00:43:33;;;;;;;24.53;16.27;;;;;;;8.96;100.00;99607.44;4991349;28;20205;-81
2022/01/02 00:46:05;;;;;;;28.47;16.60;;;;;;;8.92;100.00;99608.53;5013164;28;20337;-81
2022/01/02 00:48:39;;;;;;;23.53;15.30;;;;;;;8.89;100.00;99604.25;5010536;28;20197;-81
2022/01/02 00:51:16;;;;;;;26.10;15.57;;;;;;;8.82;100.00;99602.84;5011567;28;20272;-81
2022/01/02 00:53:48;;;;;;;24.87;17.37;;;;;;;8.80;100.00;99607.34;5014388;28;20198;-81
2022/01/02 00:56:21;;;;;;;27.47;16.63;;;;;;;8.80;100.00;99607.34;5003788;28;20253;-81
2022/01/02 00:58:53;;;;;;;23.67;16.07;;;;;;;8.74;100.00;99611.13;5003849;28;20206;-81
2022/01/02 01:01:25;;;;;;;29.07;16.67;;;;;;;8.74;100.00;99611.13;5014338;28;20213;-81
2022/01/02 01:03:57;;;;;;;24.03;16.00;;;;;;;8.80;100.00;99586.22;5005877;28;20216;-81
2022/01/02 01:06:31;;;;;;;26.60;16.63;;;;;;;8.77;100.00;99586.34;5011319;28;20198;-81
2022/01/02 01:09:03;;;;;;;26.83;16.37;;;;;;;8.76;100.00;99587.28;5009157;28;20209;-81
2022/01/02 01:11:31;;;;;;;24.77;15.70;;;;;;;8.71;100.00;99579.63;5006939;28;20221;-81
2022/01/02 01:14:02;;;;;;;24.73;16.13;;;;;;;8.71;100.00;99563.84;5010354;28;20272;-81
2022/01/02 01:16:30;;;;;;;26.83;16.70;;;;;;;8.56;100.00;99554.81;5014009;28;20202;-81
2022/01/02 01:19:02;;;;;;;24.20;15.87;;;;;;;8.55;100.00;99563.66;5014174;28;20248;-82
2022/01/02 01:21:30;;;;;;;26.03;15.70;;;;;;;8.69;100.00;99567.41;5009405;28;20226;-81
2022/01/02 01:24:00;;;;;;;25.80;15.73;;;;;;;8.70;100.00;99577.06;5008266;28;20202;-82
2022/01/02 01:26:28;;;;;;;28.37;16.30;;;;;;;8.56;100.00;99575.94;5007648;28;20194;-81
2022/01/02 01:28:56;;;;;;;25.00;16.70;;;;;;;8.46;100.00;99582.59;5005522;28;20202;-81
2022/01/02 01:31:26;;;;;;;24.43;17.37;;;;;;;8.59;100.00;99591.63;5014040;28;20218;-82
2022/01/02 01:33:54;;;;;;;26.37;16.57;;;;;;;8.69;100.00;99585.91;5008403;28;20210;-82
2022/01/02 01:36:22;;;;;;;29.60;17.33;;;;;;;8.65;100.00;99581.69;5009510;28;20206;-81
2022/01/02 01:38:51;;;;;;;26.80;17.00;;;;;;;8.65;100.00;99581.69;5011375;28;20221;-82
2022/01/02 01:41:27;;;;;;;28.30;17.23;;;;;;;8.59;100.00;99575.81;5006373;28;20198;-81
2022/01/02 01:44:07;;;;;;;24.87;17.03;;;;;;;8.59;100.00;-17300.91;5001139;28;20193;-81
2022/01/02 01:46:38;;;;;;;29.17;18.17;;;;;;;8.52;100.00;99569.09;5009147;28;20198;-81
2022/01/02 01:49:19;;;;;;;29.70;18.40;;;;;;;8.45;100.00;99559.75;5011211;28;20202;-81
2022/01/02 01:51:48;;;;;;;30.37;18.87;;;;;;;8.37;100.00;99551.34;4974304;28;20214;-81
2022/01/02 01:54:17;;;;;;;28.13;17.67;;;;;;;8.40;100.00;99553.88;5009000;28;20194;-81
2022/01/02 01:56:46;;;;;;;31.40;18.83;;;;;;;8.48;100.00;99543.75;4969902;28;20222;-81
2022/01/02 01:59:16;;;;;;;27.80;18.63;;;;;;;8.48;100.00;99544.19;4966813;28;20203;-81
2022/01/02 02:01:46;;;;;;;29.27;19.70;;;;;;;8.48;100.00;99543.75;4969492;28;20224;-81
2022/01/02 02:04:17;;;;;;;31.53;19.67;;;;;;;8.55;100.00;99545.19;4966075;28;20254;-81
2022/01/02 02:06:46;;;;;;;36.20;19.73;;;;;;;8.54;100.00;99543.47;4972861;28;20321;-81
2022/01/02 02:09:14;;;;;;;33.83;20.77;;;;;;;8.58;100.00;99542.38;4969045;28;20207;-81
2022/01/02 02:11:43;;;;;;;34.23;20.67;;;;;;;8.58;100.00;99542.38;4965584;28;20223;-81
2022/01/02 02:14:14;;;;;;;38.33;21.70;;;;;;;-144.59;100.00;99540.63;4972521;28;20213;-81
2022/01/02 02:16:45;;;;;;;35.77;20.87;;;;;;;8.69;100.00;99541.88;5001109;28;20257;-81
2022/01/02 02:19:13;;;;;;;41.80;23.30;;;;;;;8.70;100.00;99534.81;5009666;28;20229;-81
2022/01/02 02:21:44;;;;;;;42.07;23.63;;;;;;;8.69;100.00;99533.09;4977150;28;20285;-82
2022/01/02 02:24:14;;;;;;;42.03;24.37;;;;;;;8.49;100.00;99524.38;5007033;28;20198;-81
2022/01/02 02:26:44;;;;;;;39.13;23.83;;;;;;;8.64;100.00;99525.38;5010622;28;20210;-81
2022/01/02 02:29:14;;;;;;;43.23;24.10;;;;;;;8.75;100.00;99544.19;5002132;28;20207;-81
2022/01/02 02:31:42;;;;;;;38.27;25.17;;;;;;;8.65;100.00;99553.50;5011462;28;20682;-82
2022/01/02 02:34:15;;;;;;;45.70;26.17;;;;;;;8.68;100.00;99560.41;5011588;28;20249;-82
2022/01/02 02:36:46;;;;;;;42.97;26.73;;;;;;;8.74;100.00;99557.47;5009867;28;20191;-81
2022/01/02 02:39:16;;;;;;;43.90;27.67;;;;;;;8.71;100.00;99553.19;5007523;28;20210;-82
2022/01/02 02:41:45;;;;;;;45.80;27.50;;;;;;;8.80;100.00;99539.53;5009248;28;20194;-82
2022/01/02 02:44:22;;;;;;;47.93;26.00;;;;;;;8.76;100.00;99545.03;4975795;28;20210;-82
2022/01/02 02:49:39;;;;;;;48.37;27.77;;;;;;;8.66;100.00;99543.78;4974367;28;20208;-81
2022/01/02 02:52:17;;;;;;;46.30;27.30;;;;;;;8.57;100.00;99543.31;4968327;28;20264;-81
2022/01/02 02:54:47;;;;;;;51.33;30.70;;;;;;;8.54;100.00;99550.53;4971749;28;20203;-81
2022/01/02 02:57:17;;;;;;;50.00;29.23;;;;;;;8.53;100.00;99541.75;4965619;28;20207;-81
2022/01/02 02:59:45;;;;;;;50.53;29.10;;;;;;;8.63;100.00;99546.59;4968763;28;20242;-81
2022/01/02 03:02:13;;;;;;;52.67;29.90;;;;;;;8.63;100.00;99536.03;4989147;28;20194;-81
2022/01/02 03:04:42;;;;;;;52.60;29.37;;;;;;;8.50;100.00;99534.00;5013080;28;20206;-81
2022/01/02 03:07:12;;;;;;;50.47;28.73;;;;;;;8.53;100.00;99525.94;5015037;28;20209;-82
2022/01/02 03:09:46;;;;;;;47.30;28.13;;;;;;;8.56;100.00;99527.56;5006450;28;20205;-81
2022/01/02 03:12:14;;;;;;;53.03;29.17;;;;;;;8.58;100.00;99523.91;5014164;28;20217;-81
2022/01/02 03:14:43;;;;;;;48.37;28.87;;;;;;;8.58;100.00;108189.84;5011975;28;20218;-81
2022/01/02 03:17:12;;;;;;;48.63;28.73;;;;;;;8.58;100.00;99523.91;5015871;28;20324;-82
2022/01/02 03:19:40;;;;;;;51.60;30.13;;;;;;;8.48;100.00;99508.59;5011798;28;20302;-82
2022/01/02 03:22:10;;;;;;;56.77;30.93;;;;;;;8.44;100.00;99504.41;5008081;28;20198;-81
2022/01/02 03:24:40;;;;;;;57.13;30.37;;;;;;;8.50;100.00;99498.84;5015942;28;20225;-82
2022/01/02 03:27:08;;;;;;;49.07;29.20;;;;;;;8.58;100.00;99497.50;5012764;28;20203;-81
2022/01/02 03:29:36;;;;;;;49.53;30.10;;;;;;;8.53;100.00;99496.88;5014219;28;20198;-82
2022/01/02 03:32:04;;;;;;;55.43;30.57;;;;;;;8.51;100.00;99500.53;4978510;28;20225;-82
2022/01/02 03:34:33;;;;;;;56.93;31.90;;;;;;;8.45;100.00;99500.84;5012802;28;20191;-82
2022/01/02 03:37:01;;;;;;;53.73;31.63;;;;;;;8.52;100.00;99499.59;5012968;28;20195;-82
2022/01/02 03:39:30;;;;;;;51.50;31.47;;;;;;;-144.59;100.00;76155.63;5011931;28;20201;-81
2022/01/02 03:42:00;;;;;;;56.43;32.07;;;;;;;8.39;100.00;99469.47;5011542;28;20206;-81
2022/01/02 03:44:29;;;;;;;61.47;33.67;;;;;;;8.41;100.00;99470.25;5014686;28;20261;-81
2022/01/02 03:46:57;;;;;;;53.27;30.30;;;;;;;8.52;100.00;99463.50;5010024;28;20194;-81
2022/01/02 03:49:25;;;;;;;64.27;32.17;;;;;;;8.52;100.00;130056.75;5011247;28;20206;-81
2022/01/02 03:51:56;;;;;;;55.93;33.97;;;;;;;8.33;100.00;99463.53;5011411;28;20218;-81
2022/01/02 03:54:24;;;;;;;60.33;32.93;;;;;;;8.32;100.00;99471.53;5033462;28;20189;-81
2022/01/02 03:56:54;;;;;;;62.17;32.60;;;;;;;8.26;100.00;99480.59;5017775;28;20195;-82
2022/01/02 03:59:24;;;;;;;60.00;34.00;;;;;;;8.43;100.00;99474.53;5014071;28;20206;-82
2022/01/02 04:01:53;;;;;;;56.17;31.70;;;;;;;8.41;100.00;99460.56;5015201;28;20276;-82
2022/01/02 04:04:21;;;;;;;64.40;33.30;;;;;;;-97.76;100.00;99464.25;5010597;28;20194;-81
2022/01/02 04:06:50;;;;;;;62.80;33.50;;;;;;;-144.59;100.00;130196.91;5012228;28;20190;-81
2022/01/02 04:09:18;;;;;;;63.70;34.00;;;;;;;8.32;100.00;99464.47;5009702;28;20187;-82
2022/01/02 04:11:47;;;;;;;98.30;35.37;;;;;;;8.29;100.00;99455.84;5007646;28;20269;-81
2022/01/02 04:14:16;;;;;;;79.00;33.33;;;;;;;8.27;100.00;99449.78;4999901;28;20197;-81
2022/01/02 04:16:46;;;;;;;97.97;35.53;;;;;;;8.21;100.00;99439.56;5006097;28;20207;-82
2022/01/02 04:19:15;;;;;;;79.73;35.37;;;;;;;8.21;100.00;99439.56;5000670;28;20202;-82
2022/01/02 04:21:44;;;;;;;98.37;35.13;;;;;;;8.13;100.00;99447.00;5011095;28;20202;-82
2022/01/02 04:24:12;;;;;;;62.10;33.90;;;;;;;8.16;100.00;99442.41;5008809;28;20278;-82
2022/01/02 04:26:41;;;;;;;82.37;35.87;;;;;;;8.16;100.00;99442.41;4960540;28;20245;-82
2022/01/02 04:29:09;;;;;;;79.83;33.77;;;;;;;8.12;100.00;99437.38;5010256;28;20194;-82
2022/01/02 04:31:37;;;;;;;77.13;35.17;;;;;;;8.13;100.00;99433.81;5008164;28;20202;-82
2022/01/02 04:34:08;;;;;;;86.70;34.77;;;;;;;8.14;100.00;99419.69;5009281;28;20220;-82
2022/01/02 04:36:36;;;;;;;88.47;33.60;;;;;;;8.13;100.00;99428.53;5006501;28;20198;-82
2022/01/02 04:39:04;;;;;;;96.67;33.87;;;;;;;8.12;100.00;99440.00;5008568;28;20195;-82
2022/01/02 04:41:34;;;;;;;97.50;35.37;;;;;;;8.10;100.00;99445.34;5011007;28;20206;-82
2022/01/02 04:44:04;;;;;;;97.87;34.30;;;;;;;8.13;100.00;99436.44;5010292;28;20249;-81
2022/01/02 04:46:32;;;;;;;95.10;35.80;;;;;;;8.09;100.00;99430.44;5014455;28;20196;-82
2022/01/02 04:49:01;;;;;;;113.07;37.07;;;;;;;8.01;100.00;99425.56;5010161;28;20203;-82
2022/01/02 04:51:31;;;;;;;121.63;37.30;;;;;;;8.04;100.00;99433.31;5011507;28;20202;-82
2022/01/02 04:53:59;;;;;;;77.07;34.20;;;;;;;8.10;100.00;99440.06;5009990;28;20226;-82
2022/01/02 04:56:27;;;;;;;69.43;32.77;;;;;;;8.10;100.00;99444.47;5010564;28;20194;-82
2022/01/02 04:58:56;;;;;;;72.33;33.43;;;;;;;8.06;100.00;99449.06;5006074;28;20198;-81
2022/01/02 05:01:24;;;;;;;78.30;33.23;;;;;;;8.06;100.00;99449.06;5014477;28;20202;-82
2022/01/02 05:03:53;;;;;;;75.47;33.93;;;;;;;8.03;100.00;99417.56;5006206;28;20199;-81
2022/01/02 05:06:21;;;;;;;86.27;34.80;;;;;;;8.01;100.00;99419.44;5012283;28;20680;-82
2022/01/02 05:08:52;;;;;;;116.53;36.43;;;;;;;8.02;100.00;99427.28;5008674;28;20268;-81
2022/01/02 05:11:22;;;;;;;91.90;35.83;;;;;;;8.09;100.00;99417.25;5008652;28;20202;-82
2022/01/02 05:13:51;;;;;;;75.47;35.60;;;;;;;8.13;100.00;99434.66;5002774;28;20285;-82
2022/01/02 05:16:19;;;;;;;126.80;37.37;;;;;;;7.96;100.00;99419.66;5010175;28;20207;-81
2022/01/02 05:18:48;;;;;;;124.00;37.77;;;;;;;7.94;100.00;99418.88;4974886;28;20204;-81
2022/01/02 05:21:16;;;;;;;124.90;36.47;;;;;;;7.99;100.00;99437.09;5013860;28;20229;-82
2022/01/02 05:23:47;;;;;;;123.10;36.07;;;;;;;8.00;100.00;99429.09;4960211;28;20194;-82
2022/01/02 05:26:17;;;;;;;97.80;35.43;;;;;;;8.06;100.00;99422.69;5008678;28;20221;-81
2022/01/02 05:28:45;;;;;;;103.27;37.47;;;;;;;8.08;100.00;99427.88;5009950;28;20191;-81
2022/01/02 05:31:14;;;;;;;145.80;37.63;;;;;;;7.89;100.00;99420.03;5010039;28;20194;-82
2022/01/02 05:33:44;;;;;;;121.67;36.70;;;;;;;7.91;100.00;99419.03;5013854;28;20763;-81
2022/01/02 05:36:12;;;;;;;98.43;35.73;;;;;;;7.96;100.00;99413.53;5010644;28;20210;-81
2022/01/02 05:38:41;;;;;;;85.00;34.93;;;;;;;7.84;100.00;99414.97;5012173;28;20207;-81
2022/01/02 05:41:09;;;;;;;109.13;35.93;;;;;;;7.86;100.00;99412.25;5008240;28;20213;-81
2022/01/02 05:43:40;;;;;;;66.07;33.30;;;;;;;7.96;100.00;99418.78;5006214;28;20197;-81
2022/01/02 05:46:09;;;;;;;69.80;35.00;;;;;;;8.04;100.00;99406.09;5009054;28;20684;-81
2022/01/02 05:48:38;;;;;;;62.90;33.07;;;;;;;8.03;100.00;99409.66;5005292;28;20230;-82
2022/01/02 05:51:06;;;;;;;62.27;32.83;;;;;;;8.15;100.00;99410.81;5013514;28;20253;-81
2022/01/02 05:53:35;;;;;;;64.47;33.30;;;;;;;8.09;100.00;99419.03;5013494;28;20210;-82
2022/01/02 05:56:03;;;;;;;83.77;34.93;;;;;;;7.93;100.00;99413.69;5005357;28;20210;-81
2022/01/02 05:58:31;;;;;;;82.43;34.73;;;;;;;7.98;100.00;99419.56;5005513;28;20206;-81
2022/01/02 06:01:01;;;;;;;68.83;33.33;;;;;;;8.08;100.00;99402.34;5010846;28;20198;-82
2022/01/02 06:03:29;;;;;;;65.87;33.00;;;;;;;8.07;100.00;99408.56;5008334;28;20232;-81
2022/01/02 06:05:58;;;;;;;65.30;33.40;;;;;;;8.04;100.00;99399.03;5013388;28;20226;-82
2022/01/02 06:08:26;;;;;;;66.67;34.10;;;;;;;8.13;100.00;99399.50;5013287;28;20221;-81
2022/01/02 06:10:55;;;;;;;70.27;33.00;;;;;;;8.09;100.00;99411.97;5012672;28;20199;-82
2022/01/02 06:13:23;;;;;;;56.80;32.27;;;;;;;8.09;100.00;99411.97;5001729;28;20229;-81
2022/01/02 06:15:52;;;;;;;59.17;31.23;;;;;;;8.12;100.00;99408.34;5005744;28;20206;-81
2022/01/02 06:18:21;;;;;;;65.00;33.13;;;;;;;8.15;100.00;99410.81;5013709;28;20194;-82
2022/01/02 06:20:49;;;;;;;63.90;34.17;;;;;;;7.96;100.00;99406.47;5008172;28;20231;-81
2022/01/02 06:23:18;;;;;;;57.87;30.57;;;;;;;8.08;100.00;99399.72;5013456;28;20243;-82
2022/01/02 06:25:47;;;;;;;57.83;30.93;;;;;;;8.16;100.00;99381.72;5017105;28;20202;-82
2022/01/02 06:28:16;;;;;;;57.87;29.93;;;;;;;8.20;100.00;99370.09;5012957;28;20205;-81
2022/01/02 06:30:44;;;;;;;71.00;32.23;;;;;;;7.96;100.00;99373.97;5016892;28;20202;-81
2022/01/02 06:33:13;;;;;;;58.23;30.40;;;;;;;8.01;100.00;99374.59;5013822;28;20230;-81
2022/01/02 06:35:42;;;;;;;61.63;30.87;;;;;;;8.05;100.00;99349.75;5006728;28;20206;-82
2022/01/02 06:38:13;;;;;;;58.27;30.33;;;;;;;7.96;100.00;99345.81;5016726;28;20202;-82
2022/01/02 06:40:43;;;;;;;53.90;28.93;;;;;;;8.03;100.00;99352.47;5016627;28;20198;-81
2022/01/02 06:43:15;;;;;;;52.00;28.83;;;;;;;7.95;100.00;99361.72;5011420;28;20230;-82
2022/01/02 06:45:44;;;;;;;54.47;29.07;;;;;;;7.94;100.00;99370.56;5013835;28;20194;-82
2022/01/02 06:48:13;;;;;;;64.23;30.27;;;;;;;7.97;100.00;99362.47;5013790;28;20202;-82
2022/01/02 06:50:42;;;;;;;54.80;28.57;;;;;;;8.01;100.00;99358.78;5013702;28;20197;-82
2022/01/02 06:53:11;;;;;;;55.23;29.17;;;;;;;8.04;100.00;99343.63;4983793;28;20198;-82
2022/01/02 06:55:39;;;;;;;52.33;29.10;;;;;;;8.04;100.00;99348.91;5021810;28;20673;-82
2022/01/02 06:58:08;;;;;;;62.47;28.23;;;;;;;8.00;100.00;99343.84;5009150;28;20205;-81
2022/01/02 07:00:36;;;;;;;56.73;29.23;;;;;;;8.04;100.00;99340.16;5009430;28;20191;-82
2022/01/02 07:03:05;;;;;;;58.30;29.27;;;;;;;8.04;100.00;99340.16;5011864;28;20206;-82
2022/01/02 07:05:33;;;;;;;84.60;31.13;;;;;;;7.85;100.00;99350.75;5016601;28;20194;-81
2022/01/02 07:08:03;;;;;;;51.57;27.80;;;;;;;7.87;100.00;99354.16;5016154;28;20207;-81
2022/01/02 07:10:31;;;;;;;54.70;29.67;;;;;;;7.97;100.00;99363.31;4955760;28;20224;-81
2022/01/02 07:13:00;;;;;;;53.83;27.23;;;;;;;7.89;100.00;99364.63;4948497;28;20273;-81
2022/01/02 07:15:29;;;;;;;58.83;31.00;;;;;;;7.63;100.00;99336.94;4954204;28;20271;-81
2022/01/02 07:17:57;;;;;;;51.27;27.97;;;;;;;7.88;100.00;99352.38;4955680;28;20324;-81
2022/01/02 07:20:25;;;;;;;54.77;27.27;;;;;;;7.88;100.00;99342.69;4950595;28;20699;-81
2022/01/02 07:22:53;;;;;;;52.60;28.77;;;;;;;7.81;100.00;99340.44;4951960;28;20215;-82
2022/01/02 07:25:23;;;;;;;51.23;27.57;;;;;;;7.89;100.00;99351.44;4949724;28;20223;-81
2022/01/02 07:27:51;;;;;;;53.47;29.50;;;;;;;7.70;100.00;99344.44;4920892;28;20198;-82
2022/01/02 07:30:19;;;;;;;49.43;28.00;;;;;;;7.76;100.00;99345.94;4952920;29;20252;-82
2022/01/02 07:32:48;;;;;;;54.40;28.43;;;;;;;7.68;100.00;99333.13;4950496;28;20211;-82
2022/01/02 07:35:16;;;;;;;51.23;26.93;;;;;;;7.73;100.00;99315.31;4955155;28;20220;-82
2022/01/02 07:37:45;;;;;;;52.60;28.80;;;;;;;7.78;100.00;99316.88;4952539;28;20192;-81
2022/01/02 07:40:13;;;;;;;47.23;26.50;;;;;;;7.82;100.00;99318.44;4952208;28;20255;-82
2022/01/02 07:42:43;;;;;;;50.73;27.73;;;;;;;7.94;100.00;99309.91;4954197;28;20194;-82
2022/01/02 07:45:12;;;;;;;46.60;28.13;;;;;;;7.88;100.00;99315.47;4963791;28;20214;-82
2022/01/02 07:47:41;;;;;;;51.10;27.77;;;;;;;7.95;100.00;99328.28;5008278;28;20634;-82
2022/01/02 07:50:09;;;;;;;52.87;27.83;;;;;;;7.91;100.00;99326.72;4999035;28;20206;-81
2022/01/02 07:52:38;;;;;;;50.00;27.90;;;;;;;7.81;100.00;99330.72;5010446;28;20252;-82
2022/01/02 07:55:07;;;;;;;46.20;26.33;;;;;;;7.98;100.00;99327.25;5013178;28;20210;-81
2022/01/02 07:57:36;;;;;;;51.17;27.03;;;;;;;7.96;100.00;99327.34;5014270;28;20205;-81
2022/01/02 08:00:08;;;;;;;50.87;28.43;;;;;;;7.89;100.00;99315.38;5015166;28;20365;-80
2022/01/02 08:02:39;;;;;;;49.07;27.40;;;;;;;7.94;100.00;99302.84;5012781;28;20262;-81
2022/01/02 08:05:10;;;;;;;47.57;26.50;;;;;;;7.93;100.00;99302.91;5010208;28;20199;-81
2022/01/02 08:07:39;;;;;;;46.07;27.30;;;;;;;7.90;100.00;99298.63;5013525;28;20226;-81
2022/01/02 08:10:09;;;;;;;50.60;27.67;;;;;;;7.90;100.00;99298.63;5012476;28;20208;-81
2022/01/02 08:12:39;;;;;;;49.30;27.53;;;;;;;7.92;100.00;99298.56;5009343;28;20281;-81
2022/01/02 08:15:10;;;;;;;47.60;26.70;;;;;;;7.73;100.00;99291.59;5004573;28;20226;-81
2022/01/02 08:17:39;;;;;;;49.30;27.57;;;;;;;7.69;100.00;99290.03;5012207;28;20685;-81
2022/01/02 08:20:08;;;;;;;45.63;27.03;;;;;;;7.69;100.00;99290.03;5010610;28;20284;-81
2022/01/02 08:22:37;;;;;;;45.07;25.63;;;;;;;7.88;100.00;99286.47;5009001;28;20198;-81
2022/01/02 08:25:09;;;;;;;48.50;27.93;;;;;;;7.84;100.00;99277.00;5011734;28;20737;-81
2022/01/02 08:27:38;;;;;;;43.90;25.80;;;;;;;7.86;100.00;99265.44;5010597;28;20187;-81
2022/01/02 08:30:09;;;;;;;45.00;26.70;;;;;;;7.91;100.00;99271.34;5014665;28;20209;-81
2022/01/02 08:32:38;;;;;;;41.33;26.33;;;;;;;7.83;100.00;99270.88;5014776;28;20190;-81
2022/01/02 08:35:07;;;;;;;43.63;25.83;;;;;;;7.84;100.00;99275.22;5012197;28;20281;-81
2022/01/02 08:37:35;;;;;;;45.57;26.53;;;;;;;7.89;100.00;99278.47;4953987;28;20197;-81
2022/01/02 08:40:05;;;;;;;42.80;26.77;;;;;;;7.94;100.00;99270.34;4949643;28;20204;-81
2022/01/02 08:42:33;;;;;;;44.90;27.07;;;;;;;7.99;100.00;99266.50;4948008;28;20239;-81
2022/01/02 08:45:04;;;;;;;44.67;26.70;;;;;;;7.98;100.00;99254.25;4948342;28;20197;-81
2022/01/02 08:47:35;;;;;;;39.90;25.00;;;;;;;8.03;100.00;99251.41;4951209;28;20205;-81
2022/01/02 08:50:04;;;;;;;41.37;25.03;;;;;;;8.08;100.00;99257.28;4894383;29;20246;-81
2022/01/02 08:52:33;;;;;;;38.73;24.80;;;;;;;8.07;100.00;99249.44;4889866;29;20206;-81
2022/01/02 08:55:02;;;;;;;38.53;24.13;;;;;;;8.05;100.00;99246.88;4904192;29;20221;-81
2022/01/02 08:57:30;;;;;;;38.93;23.30;;;;;;;8.00;100.00;99227.78;4952864;28;20200;-81
2022/01/02 08:59:59;;;;;;;35.37;23.87;;;;;;;7.98;100.00;99216.47;4944765;28;20204;-82
2022/01/02 09:02:27;;;;;;;38.90;23.53;;;;;;;8.02;100.00;99210.13;4953843;28;20247;-81
2022/01/02 09:04:57;;;;;;;37.97;24.43;;;;;;;7.86;100.00;99219.78;4951228;28;20204;-81
2022/01/02 09:07:25;;;;;;;35.50;23.70;;;;;;;7.89;100.00;99228.34;4951406;28;20201;-80
2022/01/02 09:09:56;;;;;;;33.93;23.03;;;;;;;7.92;100.00;99235.28;4953712;28;20216;-81
2022/01/02 09:12:24;;;;;;;33.93;23.10;;;;;;;8.08;100.00;99254.63;4953203;28;20193;-81
2022/01/02 09:14:52;;;;;;;34.73;22.00;;;;;;;8.00;100.00;99243.63;4987415;28;20214;-81
2022/01/02 09:17:21;;;;;;;35.13;22.50;;;;;;;7.97;100.00;99238.53;5012038;28;20206;-81
2022/01/02 09:19:52;;;;;;;34.87;23.17;;;;;;;7.94;100.00;99229.00;5010932;28;20222;-81
2022/01/02 09:22:21;;;;;;;33.83;22.97;;;;;;;8.12;100.00;99214.00;5008626;28;20206;-81
2022/01/02 09:24:49;;;;;;;33.27;23.10;;;;;;;8.01;100.00;99205.78;5005485;28;20190;-81
2022/01/02 09:27:20;;;;;;;32.63;23.33;;;;;;;7.99;100.00;99212.91;5014041;28;20240;-81
2022/01/02 09:29:49;;;;;;;33.57;22.90;;;;;;;8.07;100.00;99213.38;5004978;28;20229;-81
2022/01/02 09:32:19;;;;;;;35.83;23.40;;;;;;;8.07;100.00;99213.38;5005719;28;20256;-81
2022/01/02 09:34:47;;;;;;;32.87;22.80;;;;;;;8.12;100.00;99184.13;5009563;28;20226;-81
2022/01/02 09:37:15;;;;;;;33.23;21.87;;;;;;;8.13;100.00;99170.84;5008281;28;20201;-81
2022/01/02 09:39:45;;;;;;;30.03;21.60;;;;;;;8.11;100.00;99156.03;5013699;28;20194;-82
2022/01/02 09:42:13;;;;;;;30.30;21.23;;;;;;;8.15;100.00;99168.13;5009327;28;20229;-82
2022/01/02 09:44:41;;;;;;;30.63;21.53;;;;;;;8.13;100.00;99164.72;5010709;28;20668;-81
2022/01/02 09:47:10;;;;;;;32.37;22.33;;;;;;;7.93;100.00;99150.81;5013881;28;20203;-81
2022/01/02 09:49:40;;;;;;;31.83;21.67;;;;;;;7.97;100.00;99128.59;5008289;28;20274;-81
2022/01/02 09:52:09;;;;;;;32.83;23.57;;;;;;;7.97;100.00;99128.59;5014860;28;20194;-81
2022/01/02 09:54:37;;;;;;;30.67;20.90;;;;;;;7.94;100.00;99105.03;5023026;28;20202;-80
2022/01/02 09:57:07;;;;;;;34.37;22.73;;;;;;;7.95;100.00;99090.91;5030578;28;20202;-81
2022/01/02 09:59:35;;;;;;;33.07;21.17;;;;;;;8.03;100.00;99090.50;5016641;28;20206;-81
2022/01/02 10:02:04;;;;;;;30.13;22.47;;;;;;;8.03;100.00;99090.50;5012342;28;20202;-81
2022/01/02 10:04:35;;;;;;;30.70;20.97;;;;;;;7.90;100.00;99071.84;5016130;28;20198;-81
2022/01/02 10:07:04;;;;;;;27.90;19.80;;;;;;;-144.59;100.00;99074.47;5016256;28;20198;-81
2022/01/02 10:09:35;;;;;;;29.73;20.90;;;;;;;7.96;100.00;99102.31;5009715;28;20249;-81
2022/01/02 10:12:29;;;;;;;32.13;22.97;;;;;;;7.99;100.00;99081.88;5014663;28;20224;-80
2022/01/02 10:15:11;;;;;;;26.43;18.03;;;;;;;-144.59;100.00;99081.88;5017565;28;20253;-81
2022/01/02 10:18:00;;;;;;;27.20;18.77;;;;;;;7.99;100.00;99110.91;5012171;28;20208;-82
2022/01/02 10:20:31;;;;;;;27.63;19.70;;;;;;;7.91;100.00;99121.03;5018797;28;20293;-81
2022/01/02 10:23:05;;;;;;;31.00;19.93;;;;;;;7.88;100.00;99159.88;5018700;28;20194;-81
2022/01/02 10:25:48;;;;;;;28.23;20.27;;;;;;;7.88;100.00;99163.38;5015387;28;20198;-81
2022/01/02 10:28:35;;;;;;;27.20;20.23;;;;;;;7.92;100.00;99142.97;5018971;28;20226;-81
2022/01/02 10:31:07;;;;;;;29.90;19.73;;;;;;;7.77;100.00;99143.78;5014491;28;20198;-81
2022/01/02 10:33:52;;;;;;;24.77;17.60;;;;;;;7.76;100.00;99158.75;5017024;28;20202;-81
2022/01/02 10:36:28;;;;;;;25.87;17.77;;;;;;;7.82;100.00;99152.31;4940035;29;20220;-81
2022/01/02 10:39:09;;;;;;;25.83;18.53;;;;;;;-144.59;100.00;99152.31;4936893;29;20216;-81
2022/01/02 10:41:40;;;;;;;24.70;17.50;;;;;;;7.87;100.00;99150.28;4930700;29;20275;-81
2022/01/02 10:44:23;;;;;;;22.90;16.97;;;;;;;7.86;100.00;99136.25;4932331;29;20234;-81
2022/01/02 10:47:08;;;;;;;25.93;18.27;;;;;;;7.90;100.00;99098.22;4935461;29;20327;-81
2022/01/02 10:49:58;;;;;;;27.97;18.10;;;;;;;7.93;100.00;99092.78;4937293;29;20201;-81
2022/01/02 10:52:30;;;;;;;24.53;17.17;;;;;;;7.93;100.00;99089.53;4937168;29;20233;-81
2022/01/02 10:55:00;;;;;;;26.23;17.63;;;;;;;7.77;100.00;99077.88;4990012;28;20194;-81
2022/01/02 10:57:29;;;;;;;26.33;17.37;;;;;;;7.84;100.00;99068.72;5011088;28;20297;-81
2022/01/02 11:00:00;;;;;;;23.40;17.57;;;;;;;7.78;100.00;99063.75;5013350;28;20198;-81
2022/01/02 11:02:29;;;;;;;26.37;17.70;;;;;;;7.75;100.00;99070.06;5016050;28;20198;-81
2022/01/02 11:05:03;;;;;;;24.20;18.00;;;;;;;7.75;100.00;99070.06;5013004;28;20194;-81
2022/01/02 11:07:39;;;;;;;24.47;18.20;;;;;;;7.63;100.00;99060.19;5006766;28;20206;-81
2022/01/02 11:10:10;;;;;;;25.60;18.20;;;;;;;7.74;100.00;99016.47;5011946;28;20217;-81
2022/01/02 11:12:41;;;;;;;23.87;18.30;;;;;;;7.63;100.00;99031.19;5012225;28;20202;-81
2022/01/02 11:15:13;;;;;;;29.00;19.37;;;;;;;7.63;100.00;99033.81;5015859;28;20201;-81
2022/01/02 11:17:41;;;;;;;25.60;19.17;;;;;;;7.64;100.00;99023.19;5013244;28;20241;-81
2022/01/02 11:20:11;;;;;;;26.23;18.73;;;;;;;7.64;100.00;99023.19;5006933;28;20234;-81
2022/01/02 11:22:44;;;;;;;24.40;17.97;;;;;;;7.81;100.00;99024.03;5011171;28;20684;-81
2022/01/02 11:25:22;;;;;;;25.07;17.97;;;;;;;7.71;100.00;99023.69;5011988;28;20206;-81
2022/01/02 11:27:54;;;;;;;25.80;19.13;;;;;;;7.69;100.00;99023.78;5010215;28;20198;-81
2022/01/02 11:30:54;;;;;;;30.27;19.00;;;;;;;7.70;100.00;99048.34;5012213;28;20221;-81
2022/01/02 11:33:31;;;;;;;26.23;18.87;;;;;;;7.74;100.00;99042.00;5009966;28;20252;-81